ペトロパブロフスク・カムチャツキー の空港の天気 - METARとTAF

ペトロパブロフスク・カムチャツキー空港 ( UHPP / PKC ) - ロシア ペトロパブロフスク・カムチャツキー
飛行場実況気象(Metar)
観測時間06/18 06:30 MAGT (06/17 19:30 UTC)
風向・風速北北東 2m/s
視程10km以上
天気現象弱いしゅう雨
全天の4割程度の雲 雲底高度 520m
全天を覆う雲 雲底高度 940m
気温8℃
湿度81%
気圧1010hPa
METARUHPP 171930Z 02002MPS 300V090 9999 -SHRA SCT017 OVC031CB 08/05 Q1010 R16R/CLRD70 NOSIG RMK MT OBSC QFE754/1006
過去の天気等 Google飛行場航空写真 Wunderground天気予報

過去48時間のMETAR

飛行場予報(TAF)
発表時間: 6/18 03:55 MAGT (6/17 16:55 UTC)
予報対象時間: 18日5時 MAGT ~ 19日11時 MAGT
風向・風速南東 8m/s 瞬間風速 18m/s
視程5000m
天気現象弱いしゅう雨
全天の8割程度の雲 雲底高度 340m
全天の8割程度の積乱雲 雲底高度 610m
18日5時 MAGT ~ 18日21時 MAGT に一時的に
風向・風速東 8m/s 瞬間風速 18m/s
視程2000m
天気現象しゅう雨
全天の8割程度の雲 雲底高度 90m
全天を覆う積乱雲 雲底高度 460m
18日21時 MAGT から
風向・風速南 3m/s 瞬間風速 12m/s
視程10km以上
天気現象弱いしゅう雨
全天の8割程度の積乱雲 雲底高度 610m
18日21時 MAGT ~ 19日11時 MAGT に一時的に
視程1000m
天気現象弱いしゅう雨 もや
全天を覆う雲 鉛直視程 90m
TAF UHPP 171655Z 1718/1824 14008G18MPS 5000 -SHRA BKN011 BKN020CB
TEMPO 1718/1810 08008G18MPS 2000 SHRA BKN003 OVC015CB
FM181000 18003G12MPS 9999 -SHRA BKN020CB
TEMPO 1810/1824 1000 -SHRA BR VV003